sensor_id;sensor_type;location;lat;lon;timestamp;pressure;altitude;pressure_sealevel;temperature;humidity
8051;BME280;4068;42.158;24.732;2024-03-02T00:02:12;99326.41;;;8.33;100.00
8051;BME280;4068;42.158;24.732;2024-03-02T00:04:38;99326.94;;;8.38;100.00
8051;BME280;4068;42.158;24.732;2024-03-02T00:07:04;99324.16;;;8.40;100.00
8051;BME280;4068;42.158;24.732;2024-03-02T00:09:29;99327.03;;;8.37;100.00
8051;BME280;4068;42.158;24.732;2024-03-02T00:11:55;99324.19;;;8.16;100.00
8051;BME280;4068;42.158;24.732;2024-03-02T00:14:22;99284.88;;;8.00;100.00
8051;BME280;4068;42.158;24.732;2024-03-02T00:16:49;99288.94;;;7.92;100.00
8051;BME280;4068;42.158;24.732;2024-03-02T00:19:15;99323.78;;;8.09;100.00
8051;BME280;4068;42.158;24.732;2024-03-02T00:21:41;99283.41;;;7.95;100.00
8051;BME280;4068;42.158;24.732;2024-03-02T00:24:32;99313.22;;;8.09;100.00
8051;BME280;4068;42.158;24.732;2024-03-02T00:26:58;99310.03;;;8.17;100.00
8051;BME280;4068;42.158;24.732;2024-03-02T00:29:24;99311.69;;;8.18;100.00
8051;BME280;4068;42.158;24.732;2024-03-02T00:31:50;99310.47;;;8.10;100.00
8051;BME280;4068;42.158;24.732;2024-03-02T00:34:17;99290.41;;;7.84;100.00
8051;BME280;4068;42.158;24.732;2024-03-02T00:36:43;99279.44;;;7.90;100.00
8051;BME280;4068;42.158;24.732;2024-03-02T00:39:12;99317.91;;;8.05;100.00
8051;BME280;4068;42.158;24.732;2024-03-02T00:41:41;99307.72;;;8.12;100.00
8051;BME280;4068;42.158;24.732;2024-03-02T00:44:09;99301.59;;;8.11;100.00
8051;BME280;4068;42.158;24.732;2024-03-02T00:46:40;99301.59;;;8.11;100.00
8051;BME280;4068;42.158;24.732;2024-03-02T00:49:18;99266.94;;;7.92;100.00
8051;BME280;4068;42.158;24.732;2024-03-02T00:51:47;99294.03;;;8.07;100.00
8051;BME280;4068;42.158;24.732;2024-03-02T00:54:19;99292.78;;;8.00;100.00
8051;BME280;4068;42.158;24.732;2024-03-02T00:56:45;99287.84;;;7.95;100.00
8051;BME280;4068;42.158;24.732;2024-03-02T00:59:11;99273.75;;;7.83;100.00
8051;BME280;4068;42.158;24.732;2024-03-02T01:01:36;99286.41;;;7.91;100.00
8051;BME280;4068;42.158;24.732;2024-03-02T01:04:02;99281.13;;;7.91;100.00
8051;BME280;4068;42.158;24.732;2024-03-02T01:06:27;99275.44;;;7.84;100.00
8051;BME280;4068;42.158;24.732;2024-03-02T01:08:53;99270.28;;;7.83;100.00
8051;BME280;4068;42.158;24.732;2024-03-02T01:11:18;99257.19;;;7.81;100.00
8051;BME280;4068;42.158;24.732;2024-03-02T01:13:45;99269.41;;;7.82;100.00
8051;BME280;4068;42.158;24.732;2024-03-02T01:16:11;99235.97;;;7.58;100.00
8051;BME280;4068;42.158;24.732;2024-03-02T01:18:37;99255.63;;;7.78;100.00
8051;BME280;4068;42.158;24.732;2024-03-02T01:21:02;99268.34;;;7.85;100.00
8051;BME280;4068;42.158;24.732;2024-03-02T01:23:28;99248.41;;;7.81;100.00
8051;BME280;4068;42.158;24.732;2024-03-02T01:25:53;99264.19;;;7.93;100.00
8051;BME280;4068;42.158;24.732;2024-03-02T01:28:20;99264.75;;;7.86;100.00
8051;BME280;4068;42.158;24.732;2024-03-02T01:30:46;99244.81;;;7.82;100.00
8051;BME280;4068;42.158;24.732;2024-03-02T01:33:12;99248.81;;;7.87;100.00
8051;BME280;4068;42.158;24.732;2024-03-02T01:35:37;99257.00;;;7.95;100.00
8051;BME280;4068;42.158;24.732;2024-03-02T01:38:03;99256.03;;;7.97;100.00
8051;BME280;4068;42.158;24.732;2024-03-02T01:40:31;99263.34;;;7.93;100.00
8051;BME280;4068;42.158;24.732;2024-03-02T01:42:57;99259.88;;;7.92;100.00
8051;BME280;4068;42.158;24.732;2024-03-02T01:45:25;99268.88;;;7.90;100.00
8051;BME280;4068;42.158;24.732;2024-03-02T01:47:51;99263.06;;;7.85;100.00
8051;BME280;4068;42.158;24.732;2024-03-02T01:50:25;99255.38;;;7.82;100.00
8051;BME280;4068;42.158;24.732;2024-03-02T01:52:51;99250.81;;;7.84;100.00
8051;BME280;4068;42.158;24.732;2024-03-02T01:55:17;99258.13;;;7.80;100.00
8051;BME280;4068;42.158;24.732;2024-03-02T01:57:42;99233.38;;;7.70;100.00
8051;BME280;4068;42.158;24.732;2024-03-02T02:00:10;99240.84;;;7.76;100.00
8051;BME280;4068;42.158;24.732;2024-03-02T02:02:36;99257.50;;;7.76;100.00
8051;BME280;4068;42.158;24.732;2024-03-02T02:05:02;99247.97;;;7.87;100.00
8051;BME280;4068;42.158;24.732;2024-03-02T02:07:27;99246.28;;;7.86;100.00
8051;BME280;4068;42.158;24.732;2024-03-02T02:09:53;99255.91;;;7.87;100.00
8051;BME280;4068;42.158;24.732;2024-03-02T02:12:18;99250.38;;;7.90;100.00
8051;BME280;4068;42.158;24.732;2024-03-02T02:14:47;99242.13;;;7.94;100.00
8051;BME280;4068;42.158;24.732;2024-03-02T02:17:14;99248.69;;;7.89;100.00
8051;BME280;4068;42.158;24.732;2024-03-02T02:19:41;99222.19;;;7.66;100.00
8051;BME280;4068;42.158;24.732;2024-03-02T02:22:06;99238.91;;;7.78;100.00
8051;BME280;4068;42.158;24.732;2024-03-02T02:24:32;99255.63;;;7.78;100.00
8051;BME280;4068;42.158;24.732;2024-03-02T02:26:57;99240.13;;;7.74;100.00
8051;BME280;4068;42.158;24.732;2024-03-02T02:29:23;99221.78;;;7.59;100.00
8051;BME280;4068;42.158;24.732;2024-03-02T02:31:48;99244.16;;;7.67;100.00
8051;BME280;4068;42.158;24.732;2024-03-02T02:34:14;99238.53;;;7.71;100.00
8051;BME280;4068;42.158;24.732;2024-03-02T02:36:41;99241.66;;;7.76;100.00
8051;BME280;4068;42.158;24.732;2024-03-02T02:39:11;99228.69;;;7.73;100.00
8051;BME280;4068;42.158;24.732;2024-03-02T02:41:38;99238.59;;;7.83;100.00
8051;BME280;4068;42.158;24.732;2024-03-02T02:44:04;99230.28;;;7.76;100.00
8051;BME280;4068;42.158;24.732;2024-03-02T02:46:30;99232.56;;;7.81;100.00
8051;BME280;4068;42.158;24.732;2024-03-02T02:48:55;99203.44;;;7.58;100.00
8051;BME280;4068;42.158;24.732;2024-03-02T02:51:21;99242.28;;;7.80;100.00
8051;BME280;4068;42.158;24.732;2024-03-02T02:53:46;99236.38;;;7.76;100.00
8051;BME280;4068;42.158;24.732;2024-03-02T02:56:12;99231.09;;;7.76;100.00
8051;BME280;4068;42.158;24.732;2024-03-02T02:58:37;99204.19;;;7.60;100.00
8051;BME280;4068;42.158;24.732;2024-03-02T03:01:03;99236.91;;;7.82;100.00
8051;BME280;4068;42.158;24.732;2024-03-02T03:03:29;99226.06;;;7.73;100.00
8051;BME280;4068;42.158;24.732;2024-03-02T03:05:54;99240.66;;;7.90;100.00
8051;BME280;4068;42.158;24.732;2024-03-02T03:08:20;99239.94;;;7.88;100.00
8051;BME280;4068;42.158;24.732;2024-03-02T03:10:45;99234.66;;;7.88;100.00
8051;BME280;4068;42.158;24.732;2024-03-02T03:13:11;99245.09;;;7.90;100.00
8051;BME280;4068;42.158;24.732;2024-03-02T03:15:37;99245.66;;;7.82;100.00
8051;BME280;4068;42.158;24.732;2024-03-02T03:18:05;99234.44;;;7.67;100.00
8051;BME280;4068;42.158;24.732;2024-03-02T03:20:32;99251.50;;;7.74;100.00
8051;BME280;4068;42.158;24.732;2024-03-02T03:22:59;99238.66;;;7.70;100.00
8051;BME280;4068;42.158;24.732;2024-03-02T03:25:24;99243.94;;;7.70;100.00
8051;BME280;4068;42.158;24.732;2024-03-02T03:27:50;99218.94;;;7.63;100.00
8051;BME280;4068;42.158;24.732;2024-03-02T03:30:17;99220.28;;;7.68;100.00
8051;BME280;4068;42.158;24.732;2024-03-02T03:32:43;99223.69;;;7.82;100.00
8051;BME280;4068;42.158;24.732;2024-03-02T03:35:09;99216.56;;;7.71;100.00
8051;BME280;4068;42.158;24.732;2024-03-02T03:37:34;99223.19;;;7.76;100.00
8051;BME280;4068;42.158;24.732;2024-03-02T03:40:00;99236.06;;;7.81;100.00
8051;BME280;4068;42.158;24.732;2024-03-02T03:42:26;99221.78;;;7.84;100.00
8051;BME280;4068;42.158;24.732;2024-03-02T03:44:52;99189.69;;;7.66;100.00
8051;BME280;4068;42.158;24.732;2024-03-02T03:47:18;99235.94;;;7.83;100.00
8051;BME280;4068;42.158;24.732;2024-03-02T03:49:43;99231.84;;;7.78;100.00
8051;BME280;4068;42.158;24.732;2024-03-02T03:52:09;99224.66;;;7.81;100.00
8051;BME280;4068;42.158;24.732;2024-03-02T03:54:34;99227.41;;;7.79;100.00
8051;BME280;4068;42.158;24.732;2024-03-02T03:57:02;99224.28;;;7.74;100.00
8051;BME280;4068;42.158;24.732;2024-03-02T03:59:28;99221.00;;;7.70;100.00
8051;BME280;4068;42.158;24.732;2024-03-02T04:01:53;99230.16;;;7.77;100.00
8051;BME280;4068;42.158;24.732;2024-03-02T04:04:18;99228.75;;;7.85;100.00
8051;BME280;4068;42.158;24.732;2024-03-02T04:06:44;99230.44;;;7.86;100.00
8051;BME280;4068;42.158;24.732;2024-03-02T04:09:09;99236.25;;;7.91;100.00
8051;BME280;4068;42.158;24.732;2024-03-02T04:11:35;99244.63;;;7.96;100.00
8051;BME280;4068;42.158;24.732;2024-03-02T04:14:00;99243.81;;;7.95;100.00
8051;BME280;4068;42.158;24.732;2024-03-02T04:16:26;99243.69;;;7.97;100.00
8051;BME280;4068;42.158;24.732;2024-03-02T04:18:51;99240.09;;;7.98;100.00
8051;BME280;4068;42.158;24.732;2024-03-02T04:21:17;99241.53;;;8.02;100.00
8051;BME280;4068;42.158;24.732;2024-03-02T04:23:42;99249.22;;;7.94;100.00
8051;BME280;4068;42.158;24.732;2024-03-02T04:26:08;99213.59;;;7.75;100.00
8051;BME280;4068;42.158;24.732;2024-03-02T04:28:33;99245.81;;;7.92;100.00
8051;BME280;4068;42.158;24.732;2024-03-02T04:30:59;99245.38;;;7.98;100.00
8051;BME280;4068;42.158;24.732;2024-03-02T04:33:24;99239.88;;;8.01;100.00
8051;BME280;4068;42.158;24.732;2024-03-02T04:35:50;99251.72;;;7.95;100.00
8051;BME280;4068;42.158;24.732;2024-03-02T04:38:15;99245.97;;;8.02;100.00
8051;BME280;4068;42.158;24.732;2024-03-02T04:40:41;99246.44;;;7.95;100.00
8051;BME280;4068;42.158;24.732;2024-03-02T04:43:06;99236.59;;;7.98;100.00
8051;BME280;4068;42.158;24.732;2024-03-02T04:45:34;99230.72;;;7.94;100.00
8051;BME280;4068;42.158;24.732;2024-03-02T04:47:59;99235.78;;;7.97;100.00
8051;BME280;4068;42.158;24.732;2024-03-02T04:50:25;99241.53;;;8.02;100.00
8051;BME280;4068;42.158;24.732;2024-03-02T04:52:50;99234.13;;;8.07;100.00
8051;BME280;4068;42.158;24.732;2024-03-02T04:55:16;99242.78;;;8.09;100.00
8051;BME280;4068;42.158;24.732;2024-03-02T04:57:41;99244.69;;;8.07;100.00
8051;BME280;4068;42.158;24.732;2024-03-02T05:00:07;99242.28;;;8.04;100.00
8051;BME280;4068;42.158;24.732;2024-03-02T05:02:34;99244.91;;;8.04;100.00
8051;BME280;4068;42.158;24.732;2024-03-02T05:05:00;99241.06;;;7.97;100.00
8051;BME280;4068;42.158;24.732;2024-03-02T05:07:25;99246.94;;;8.01;100.00
8051;BME280;4068;42.158;24.732;2024-03-02T05:09:51;99233.59;;;7.91;100.00
8051;BME280;4068;42.158;24.732;2024-03-02T05:12:17;99250.44;;;8.01;100.00
8051;BME280;4068;42.158;24.732;2024-03-02T05:15:14;99250.97;;;7.93;100.00
8051;BME280;4068;42.158;24.732;2024-03-02T05:17:41;99246.78;;;7.91;100.00
8051;BME280;4068;42.158;24.732;2024-03-02T05:20:09;99255.31;;;7.94;100.00
8051;BME280;4068;42.158;24.732;2024-03-02T05:22:36;99255.03;;;7.86;100.00
8051;BME280;4068;42.158;24.732;2024-03-02T05:25:03;99262.84;;;7.88;100.00
8051;BME280;4068;42.158;24.732;2024-03-02T05:27:29;99226.97;;;7.61;100.00
8051;BME280;4068;42.158;24.732;2024-03-02T05:29:54;99258.25;;;7.78;100.00
8051;BME280;4068;42.158;24.732;2024-03-02T05:32:20;99263.25;;;7.70;100.00
8051;BME280;4068;42.158;24.732;2024-03-02T05:34:45;99263.41;;;7.80;100.00
8051;BME280;4068;42.158;24.732;2024-03-02T05:37:11;99271.00;;;7.85;100.00
8051;BME280;4068;42.158;24.732;2024-03-02T05:39:37;99252.44;;;7.73;100.00
8051;BME280;4068;42.158;24.732;2024-03-02T05:42:02;99247.88;;;7.64;100.00
8051;BME280;4068;42.158;24.732;2024-03-02T05:44:28;99276.09;;;7.75;100.00
8051;BME280;4068;42.158;24.732;2024-03-02T05:46:54;99277.38;;;7.69;100.00
8051;BME280;4068;42.158;24.732;2024-03-02T05:49:20;99276.72;;;7.78;100.00
8051;BME280;4068;42.158;24.732;2024-03-02T05:51:45;99266.72;;;7.71;100.00
8051;BME280;4068;42.158;24.732;2024-03-02T05:54:11;99248.59;;;7.66;100.00
8051;BME280;4068;42.158;24.732;2024-03-02T05:56:36;99271.84;;;7.85;100.00
8051;BME280;4068;42.158;24.732;2024-03-02T05:59:02;99278.69;;;7.88;100.00
8051;BME280;4068;42.158;24.732;2024-03-02T06:01:41;99254.03;;;7.76;100.00
8051;BME280;4068;42.158;24.732;2024-03-02T06:04:08;99278.97;;;7.96;100.00
8051;BME280;4068;42.158;24.732;2024-03-02T06:06:33;99273.09;;;7.92;100.00
8051;BME280;4068;42.158;24.732;2024-03-02T06:09:00;99268.63;;;7.93;100.00
8051;BME280;4068;42.158;24.732;2024-03-02T06:11:26;99275.50;;;7.95;100.00
8051;BME280;4068;42.158;24.732;2024-03-02T06:13:51;99270.09;;;7.97;100.00
8051;BME280;4068;42.158;24.732;2024-03-02T06:16:16;99269.50;;;8.05;100.00
8051;BME280;4068;42.158;24.732;2024-03-02T06:18:42;99254.28;;;8.08;100.00
8051;BME280;4068;42.158;24.732;2024-03-02T06:21:07;99274.69;;;8.06;100.00
8051;BME280;4068;42.158;24.732;2024-03-02T06:23:33;99272.91;;;8.07;100.00
8051;BME280;4068;42.158;24.732;2024-03-02T06:26:00;99284.28;;;8.07;100.00
8051;BME280;4068;42.158;24.732;2024-03-02T06:28:25;99286.22;;;8.05;100.00
8051;BME280;4068;42.158;24.732;2024-03-02T06:30:51;99283.22;;;8.10;100.00
8051;BME280;4068;42.158;24.732;2024-03-02T06:33:17;99283.63;;;8.17;100.00
8051;BME280;4068;42.158;24.732;2024-03-02T06:35:42;99281.03;;;8.28;100.00
8051;BME280;4068;42.158;24.732;2024-03-02T06:38:08;99287.06;;;8.41;100.00
8051;BME280;4068;42.158;24.732;2024-03-02T06:40:33;99290.66;;;8.40;100.00
8051;BME280;4068;42.158;24.732;2024-03-02T06:42:59;99256.00;;;8.09;100.00
8051;BME280;4068;42.158;24.732;2024-03-02T06:45:24;99291.84;;;8.36;100.00
8051;BME280;4068;42.158;24.732;2024-03-02T06:47:50;99272.69;;;8.45;100.00
8051;BME280;4068;42.158;24.732;2024-03-02T06:50:15;99291.66;;;8.51;100.00
8051;BME280;4068;42.158;24.732;2024-03-02T06:52:41;99293.13;;;8.55;100.00
8051;BME280;4068;42.158;24.732;2024-03-02T06:55:07;99284.59;;;8.51;100.00
8051;BME280;4068;42.158;24.732;2024-03-02T06:57:32;99298.53;;;8.64;100.00
8051;BME280;4068;42.158;24.732;2024-03-02T06:59:58;99309.16;;;8.76;100.00
8051;BME280;4068;42.158;24.732;2024-03-02T07:02:27;99299.38;;;8.54;100.00
8051;BME280;4068;42.158;24.732;2024-03-02T07:04:54;99303.38;;;8.59;100.00
8051;BME280;4068;42.158;24.732;2024-03-02T07:07:19;99304.56;;;8.67;100.00
8051;BME280;4068;42.158;24.732;2024-03-02T07:09:45;99311.06;;;8.74;100.00
8051;BME280;4068;42.158;24.732;2024-03-02T07:12:11;99308.06;;;8.67;100.00
8051;BME280;4068;42.158;24.732;2024-03-02T07:14:36;99304.06;;;8.61;100.00
8051;BME280;4068;42.158;24.732;2024-03-02T07:17:20;99288.72;;;8.78;100.00
8051;BME280;4068;42.158;24.732;2024-03-02T07:19:46;99285.97;;;8.91;100.00
8051;BME280;4068;42.158;24.732;2024-03-02T07:22:11;99291.75;;;9.07;100.00
8051;BME280;4068;42.158;24.732;2024-03-02T07:24:41;99296.78;;;9.22;100.00
8051;BME280;4068;42.158;24.732;2024-03-02T07:27:07;99300.16;;;9.24;100.00
8051;BME280;4068;42.158;24.732;2024-03-02T07:29:32;99268.06;;;8.94;100.00
8051;BME280;4068;42.158;24.732;2024-03-02T07:31:58;99306.78;;;9.07;100.00
8051;BME280;4068;42.158;24.732;2024-03-02T07:34:23;99308.34;;;9.09;100.00
8051;BME280;4068;42.158;24.732;2024-03-02T07:36:49;99302.19;;;9.09;100.00
8051;BME280;4068;42.158;24.732;2024-03-02T07:39:14;99308.34;;;9.21;100.00
8051;BME280;4068;42.158;24.732;2024-03-02T07:41:40;99313.16;;;9.15;100.00
8051;BME280;4068;42.158;24.732;2024-03-02T07:44:06;99314.59;;;9.20;100.00
8051;BME280;4068;42.158;24.732;2024-03-02T07:46:31;99317.72;;;9.25;100.00
8051;BME280;4068;42.158;24.732;2024-03-02T07:48:57;99279.13;;;9.11;100.00
8051;BME280;4068;42.158;24.732;2024-03-02T07:51:22;99310.50;;;9.27;100.00
8051;BME280;4068;42.158;24.732;2024-03-02T07:53:48;99308.69;;;9.27;100.00
8051;BME280;4068;42.158;24.732;2024-03-02T07:56:13;99308.81;;;9.26;100.00
8051;BME280;4068;42.158;24.732;2024-03-02T07:58:39;99305.94;;;9.29;100.00
8051;BME280;4068;42.158;24.732;2024-03-02T08:01:07;99276.13;;;9.27;100.00
8051;BME280;4068;42.158;24.732;2024-03-02T08:03:32;99314.72;;;9.52;100.00
8051;BME280;4068;42.158;24.732;2024-03-02T08:05:59;99332.88;;;9.57;100.00
8051;BME280;4068;42.158;24.732;2024-03-02T08:08:25;99336.47;;;9.44;100.00
8051;BME280;4068;42.158;24.732;2024-03-02T08:10:51;99327.72;;;9.32;100.00
8051;BME280;4068;42.158;24.732;2024-03-02T08:13:16;99330.34;;;9.21;100.00
8051;BME280;4068;42.158;24.732;2024-03-02T08:15:41;99325.06;;;9.21;100.00
8051;BME280;4068;42.158;24.732;2024-03-02T08:18:07;99325.66;;;9.36;100.00
8051;BME280;4068;42.158;24.732;2024-03-02T08:20:33;99323.75;;;9.38;100.00
8051;BME280;4068;42.158;24.732;2024-03-02T08:22:58;99315.78;;;9.49;100.00
8051;BME280;4068;42.158;24.732;2024-03-02T08:25:24;99324.94;;;9.57;100.00
8051;BME280;4068;42.158;24.732;2024-03-02T08:27:49;99300.88;;;9.37;100.00
8051;BME280;4068;42.158;24.732;2024-03-02T08:30:15;99312.63;;;9.67;100.00
8051;BME280;4068;42.158;24.732;2024-03-02T08:32:40;99309.69;;;9.81;100.00
8051;BME280;4068;42.158;24.732;2024-03-02T08:35:06;99307.50;;;9.98;100.00
8051;BME280;4068;42.158;24.732;2024-03-02T08:37:32;99317.78;;;9.80;100.00
8051;BME280;4068;42.158;24.732;2024-03-02T08:39:57;99290.13;;;9.61;100.00
8051;BME280;4068;42.158;24.732;2024-03-02T08:42:23;99285.22;;;9.57;100.00
8051;BME280;4068;42.158;24.732;2024-03-02T08:44:49;99312.63;;;9.67;100.00
8051;BME280;4068;42.158;24.732;2024-03-02T08:47:15;99318.06;;;9.54;100.00
8051;BME280;4068;42.158;24.732;2024-03-02T08:49:40;99306.88;;;9.50;100.00
8051;BME280;4068;42.158;24.732;2024-03-02T08:52:06;99307.22;;;9.46;100.00
8051;BME280;4068;42.158;24.732;2024-03-02T08:54:31;99311.78;;;9.66;100.00
8051;BME280;4068;42.158;24.732;2024-03-02T08:56:58;99314.09;;;9.48;100.00
8051;BME280;4068;42.158;24.732;2024-03-02T08:59:24;99283.41;;;9.46;100.00
8051;BME280;4068;42.158;24.732;2024-03-02T09:01:50;99285.94;;;9.47;100.00
8051;BME280;4068;42.158;24.732;2024-03-02T09:04:16;99301.31;;;9.76;100.00
8051;BME280;4068;42.158;24.732;2024-03-02T09:06:42;99313.50;;;10.00;100.00
8051;BME280;4068;42.158;24.732;2024-03-02T09:09:07;99309.06;;;10.00;100.00
8051;BME280;4068;42.158;24.732;2024-03-02T09:11:33;99307.94;;;10.03;100.00
8051;BME280;4068;42.158;24.732;2024-03-02T09:13:59;99309.75;;;10.02;100.00
8051;BME280;4068;42.158;24.732;2024-03-02T09:16:25;99317.44;;;10.06;100.00
8051;BME280;4068;42.158;24.732;2024-03-02T09:18:56;99314.59;;;9.97;100.00
8051;BME280;4068;42.158;24.732;2024-03-02T09:21:21;99316.41;;;9.97;100.00
8051;BME280;4068;42.158;24.732;2024-03-02T09:23:48;99313.25;;;10.03;100.00
8051;BME280;4068;42.158;24.732;2024-03-02T09:26:14;99294.47;;;10.06;100.00
8051;BME280;4068;42.158;24.732;2024-03-02T09:28:43;99328.22;;;10.25;100.00
8051;BME280;4068;42.158;24.732;2024-03-02T09:31:08;99311.59;;;10.34;100.00
8051;BME280;4068;42.158;24.732;2024-03-02T09:33:34;99328.72;;;10.51;100.00
8051;BME280;4068;42.158;24.732;2024-03-02T09:35:59;99317.09;;;10.43;100.00
8051;BME280;4068;42.158;24.732;2024-03-02T09:38:25;99311.81;;;10.31;100.00
8051;BME280;4068;42.158;24.732;2024-03-02T09:40:51;99318.81;;;10.32;100.00
8051;BME280;4068;42.158;24.732;2024-03-02T09:43:16;99320.13;;;10.38;100.00
8051;BME280;4068;42.158;24.732;2024-03-02T09:45:42;99324.97;;;10.22;100.00
8051;BME280;4068;42.158;24.732;2024-03-02T09:48:10;99320.41;;;10.35;100.00
8051;BME280;4068;42.158;24.732;2024-03-02T09:50:35;99333.06;;;10.52;100.00
8051;BME280;4068;42.158;24.732;2024-03-02T09:53:01;99298.75;;;10.51;100.00
8051;BME280;4068;42.158;24.732;2024-03-02T09:55:27;99302.28;;;10.40;100.00
8051;BME280;4068;42.158;24.732;2024-03-02T09:57:53;99313.41;;;10.55;100.00
8051;BME280;4068;42.158;24.732;2024-03-02T10:00:18;99331.13;;;10.97;100.00
8051;BME280;4068;42.158;24.732;2024-03-02T10:02:44;99338.03;;;11.40;100.00
8051;BME280;4068;42.158;24.732;2024-03-02T10:05:26;99331.53;;;12.24;100.00
8051;BME280;4068;42.158;24.732;2024-03-02T10:08:00;99335.09;;;13.01;100.00
8051;BME280;4068;42.158;24.732;2024-03-02T10:10:35;99337.50;;;13.70;100.00
8051;BME280;4068;42.158;24.732;2024-03-02T10:13:05;99347.09;;;14.08;100.00
8051;BME280;4068;42.158;24.732;2024-03-02T10:15:31;99304.81;;;13.95;100.00
8051;BME280;4068;42.158;24.732;2024-03-02T10:17:56;99341.50;;;14.02;100.00
8051;BME280;4068;42.158;24.732;2024-03-02T10:20:26;99350.50;;;14.01;100.00
8051;BME280;4068;42.158;24.732;2024-03-02T10:22:55;99333.84;;;13.71;100.00
8051;BME280;4068;42.158;24.732;2024-03-02T10:28:00;99319.38;;;13.55;100.00
8051;BME280;4068;42.158;24.732;2024-03-02T10:30:27;99327.81;;;13.41;100.00
8051;BME280;4068;42.158;24.732;2024-03-02T10:32:54;99320.91;;;13.10;100.00
8051;BME280;4068;42.158;24.732;2024-03-02T10:35:21;99329.97;;;12.80;100.00
8051;BME280;4068;42.158;24.732;2024-03-02T10:37:49;99292.78;;;12.21;100.00
8051;BME280;4068;42.158;24.732;2024-03-02T10:40:15;99314.75;;;12.23;100.00
8051;BME280;4068;42.158;24.732;2024-03-02T10:42:42;99313.75;;;12.05;100.00
8051;BME280;4068;42.158;24.732;2024-03-02T10:45:09;99299.47;;;11.96;100.00
8051;BME280;4068;42.158;24.732;2024-03-02T10:47:38;99297.53;;;12.08;100.00
8051;BME280;4068;42.158;24.732;2024-03-02T10:50:07;99293.59;;;12.02;100.00
8051;BME280;4068;42.158;24.732;2024-03-02T10:52:36;99282.81;;;11.94;100.00
8051;BME280;4068;42.158;24.732;2024-03-02T10:55:02;99282.94;;;11.92;100.00
8051;BME280;4068;42.158;24.732;2024-03-02T10:57:53;99273.53;;;11.59;100.00
8051;BME280;4068;42.158;24.732;2024-03-02T11:00:19;99252.94;;;11.42;100.00
8051;BME280;4068;42.158;24.732;2024-03-02T11:02:51;99266.34;;;11.50;100.00
8051;BME280;4068;42.158;24.732;2024-03-02T11:05:27;99250.38;;;11.20;100.00
8051;BME280;4068;42.158;24.732;2024-03-02T11:08:06;99277.94;;;11.39;100.00
8051;BME280;4068;42.158;24.732;2024-03-02T11:10:36;99253.06;;;11.30;100.00
8051;BME280;4068;42.158;24.732;2024-03-02T11:13:05;99271.91;;;11.37;100.00
8051;BME280;4068;42.158;24.732;2024-03-02T11:15:34;99262.44;;;11.34;100.00
8051;BME280;4068;42.158;24.732;2024-03-02T11:18:03;99263.22;;;11.25;100.00
8051;BME280;4068;42.158;24.732;2024-03-02T11:20:31;99255.97;;;11.27;100.00
8051;BME280;4068;42.158;24.732;2024-03-02T11:22:57;99252.44;;;11.67;100.00
8051;BME280;4068;42.158;24.732;2024-03-02T11:25:24;99259.44;;;11.78;100.00
8051;BME280;4068;42.158;24.732;2024-03-02T11:33:03;99250.41;;;11.40;100.00
8051;BME280;4068;42.158;24.732;2024-03-02T11:35:36;99238.28;;;11.47;100.00
8051;BME280;4068;42.158;24.732;2024-03-02T11:38:06;99243.72;;;11.55;100.00
8051;BME280;4068;42.158;24.732;2024-03-02T11:40:32;99245.31;;;11.87;100.00
8051;BME280;4068;42.158;24.732;2024-03-02T11:42:59;99220.16;;;11.91;100.00
8051;BME280;4068;42.158;24.732;2024-03-02T11:45:29;99240.16;;;12.15;100.00
8051;BME280;4068;42.158;24.732;2024-03-02T11:47:57;99240.97;;;12.35;100.00
8051;BME280;4068;42.158;24.732;2024-03-02T11:50:39;99234.31;;;12.78;100.00
8051;BME280;4068;42.158;24.732;2024-03-02T11:53:06;99222.09;;;12.86;100.00
8051;BME280;4068;42.158;24.732;2024-03-02T11:55:35;99238.75;;;12.88;100.00
8051;BME280;4068;42.158;24.732;2024-03-02T11:58:04;99235.75;;;13.01;100.00
8051;BME280;4068;42.158;24.732;2024-03-02T12:00:30;99239.09;;;13.30;100.00
8051;BME280;4068;42.158;24.732;2024-03-02T12:03:05;99241.94;;;13.75;100.00
8051;BME280;4068;42.158;24.732;2024-03-02T12:05:31;99247.13;;;13.94;100.00
8051;BME280;4068;42.158;24.732;2024-03-02T12:07:58;99225.28;;;14.09;100.00
8051;BME280;4068;42.158;24.732;2024-03-02T12:10:25;99248.66;;;14.59;100.00
8051;BME280;4068;42.158;24.732;2024-03-02T12:12:59;99252.16;;;14.78;100.00
8051;BME280;4068;42.158;24.732;2024-03-02T12:15:26;99245.94;;;15.04;100.00
8051;BME280;4068;42.158;24.732;2024-03-02T12:17:54;99250.69;;;15.18;100.00
8051;BME280;4068;42.158;24.732;2024-03-02T12:20:20;99233.53;;;15.37;100.00
8051;BME280;4068;42.158;24.732;2024-03-02T12:22:45;99222.78;;;15.12;98.95
8051;BME280;4068;42.158;24.732;2024-03-02T12:25:11;99227.91;;;15.48;99.46
8051;BME280;4068;42.158;24.732;2024-03-02T12:27:39;99219.56;;;15.51;99.57
8051;BME280;4068;42.158;24.732;2024-03-02T12:30:05;99230.16;;;15.86;96.73
8051;BME280;4068;42.158;24.732;2024-03-02T12:32:33;99231.50;;;15.90;95.15
8051;BME280;4068;42.158;24.732;2024-03-02T12:34:59;99208.06;;;15.59;97.56
8051;BME280;4068;42.158;24.732;2024-03-02T12:37:25;99225.28;;;15.65;99.38
8051;BME280;4068;42.158;24.732;2024-03-02T12:39:52;99223.69;;;15.38;97.81
8051;BME280;4068;42.158;24.732;2024-03-02T12:42:18;99235.09;;;15.05;99.12
8051;BME280;4068;42.158;24.732;2024-03-02T12:44:43;99225.81;;;14.83;99.23
8051;BME280;4068;42.158;24.732;2024-03-02T12:47:09;99215.69;;;14.42;100.00
8051;BME280;4068;42.158;24.732;2024-03-02T12:49:35;99230.03;;;14.41;100.00
8051;BME280;4068;42.158;24.732;2024-03-02T12:52:00;99241.31;;;14.35;100.00
8051;BME280;4068;42.158;24.732;2024-03-02T12:54:27;99236.56;;;14.03;100.00
8051;BME280;4068;42.158;24.732;2024-03-02T12:56:53;99240.88;;;14.04;100.00
8051;BME280;4068;42.158;24.732;2024-03-02T12:59:20;99237.22;;;14.05;100.00
8051;BME280;4068;42.158;24.732;2024-03-02T13:01:51;99209.97;;;13.75;100.00
8051;BME280;4068;42.158;24.732;2024-03-02T13:04:21;99232.81;;;13.77;100.00
8051;BME280;4068;42.158;24.732;2024-03-02T13:06:47;99211.84;;;13.46;100.00
8051;BME280;4068;42.158;24.732;2024-03-02T13:09:13;99235.06;;;13.36;100.00
8051;BME280;4068;42.158;24.732;2024-03-02T13:11:41;99239.91;;;13.13;100.00
8051;BME280;4068;42.158;24.732;2024-03-02T13:14:07;99210.66;;;12.75;100.00